Commerce City, CO

6:40 AM MST on November 27, 2014 (GMT -0700)
MesoWest Tri-County Health Dept CO US NEMPPA | Change Station
CLOSE
Current Station
Personal Weather Station
Location: Commerce City, CO
Elevation: 5166 ft
Nearby Weather Stations

Elev 5166 ft 39.83 °N, 104.94 °W | Updated 12 days ago

Partly Cloudy
Partly Cloudy
43 °F
Feels Like 43 °F
N
12
Wind Variable Wind from SSW
Gusts 10 mph

Today
High -- | Low -- °F
--% Chance of Precip.
Yesterday
High -- | Low -- °F
Precip. -- in
6:57 AM 4:36 PM
Waxing Crescent, 29% visible
Pressure 30.22 in
Visibility 10.0 miles
Clouds Scattered Clouds 20000 ft
Mostly Cloudy 25000 ft
Dew Point 22 °F
Humidity 45%
Rainfall -999.00 in
Snow Depth Not available.
UV 0 out of 12
Pollen .10 out of 12
Air Quality Not available.
Flu Activity Not available.
METAR KDEN 271253Z 19012KT 10SM SCT200 BKN250 07/M06 A3021 RMK AO2 SLP232 T00671061

More Conditions Fewer Conditions

Pressure 30.22 in
Visibility 10.0 miles
Clouds Scattered Clouds 20000 ft
Mostly Cloudy 25000 ft
Dew Point 22 °F
Humidity 45%
Rainfall -999.00 in
Snow Depth Not available.
UV 0 out of 12
Pollen .10 out of 12
Air Quality Not available.
Flu Activity Not available.
METAR KDEN 271253Z 19012KT 10SM SCT200 BKN250 07/M06 A3021 RMK AO2 SLP232 T00671061

More Conditions Fewer Conditions

10-Day Weather Forecast

Almanac

Astronomy

Nov. 27, 2014 Rise Set
Actual Time
Civil Twilight
Nautical Twilight
Astronomical Twilight
Moon
Length of Visible Light
Length of Day
Tomorrow will be .
, % of the Moon is Illuminated

Today's Extremes

State Highs State Lows

Community

WunderPhotos

Upload Photos

1,774,003 photos uploaded!

WunderBlogs® & News

Nearby

Air Quality

  Air Quality AQ Index Pollutant
Not available.

Snow Depth

Station Depth Elevation

Earthquake Activity

City Distance Mag. Time & Date
Minimum magnitude displayed is 2.5.

Coastal Water Temperatures

Place Temperature

Nearby Weather Stations